Time;durP1;ratioP1;P1;durP2;ratioP2;P2;SDS_P1;SDS_P2;PMS_P1;PMS_P2;Temp;Humidity;BMP_temperature;BMP_pressure;BME280_temperature;BME280_humidity;BME280_pressure;Samples;Min_cycle;Max_cycle;Signal;HPM_P1;HPM_P2
2023/07/29 00:01:40;;;;;;;2.10;2.00;;;17.00;99.90;;;;;;479948;241;28891;-81
2023/07/29 00:03:40;;;;;;;2.10;2.00;;;17.00;99.90;;;;;;489574;239;29264;-85
2023/07/29 00:05:41;;;;;;;2.40;2.13;;;17.00;99.90;;;;;;489717;243;29196;-81
2023/07/29 00:07:42;;;;;;;2.00;1.90;;;17.00;99.90;;;;;;479951;241;29345;-83
2023/07/29 00:09:44;;;;;;;2.20;2.00;;;17.00;99.90;;;;;;489629;239;28812;-82
2023/07/29 00:11:45;;;;;;;3.70;2.30;;;17.00;99.90;;;;;;479926;247;28774;-79
2023/07/29 00:13:47;;;;;;;2.27;2.17;;;17.00;99.90;;;;;;489627;243;28811;-84
2023/07/29 00:15:47;;;;;;;2.13;2.00;;;17.00;99.90;;;;;;480043;247;28811;-82
2023/07/29 00:17:49;;;;;;;2.03;1.93;;;17.00;99.90;;;;;;489640;243;28784;-78
2023/07/29 00:19:50;;;;;;;2.70;2.00;;;17.00;99.90;;;;;;479954;241;28976;-80
2023/07/29 00:21:51;;;;;;;2.87;2.17;;;17.00;99.90;;;;;;489540;239;28797;-79
2023/07/29 00:23:52;;;;;;;2.43;2.33;;;17.10;99.90;;;;;;479912;247;29251;-83
2023/07/29 00:25:54;;;;;;;2.47;2.27;;;17.10;99.90;;;;;;489627;243;29177;-81
2023/07/29 00:27:55;;;;;;;2.27;2.17;;;17.10;99.90;;;;;;489507;239;29262;-79
2023/07/29 00:29:56;;;;;;;1.97;1.87;;;17.20;99.90;;;;;;479908;241;28771;-81
2023/07/29 00:31:57;;;;;;;2.00;1.90;;;17.20;99.90;;;;;;489504;239;28701;-79
2023/07/29 00:33:59;;;;;;;2.00;1.90;;;17.30;99.90;;;;;;489525;239;28741;-80
2023/07/29 00:36:03;;;;;;;2.40;2.20;;;17.30;99.90;;;;;;479874;247;28783;-80
2023/07/29 00:38:01;;;;;;;2.07;1.97;;;17.20;99.90;;;;;;488946;236;30680;-80
2023/07/29 00:40:02;;;;;;;3.50;1.80;;;17.30;99.90;;;;;;508173;234;28719;-83
2023/07/29 00:42:04;;;;;;;1.90;1.80;;;17.30;99.90;;;;;;508240;234;28796;-79
2023/07/29 00:44:05;;;;;;;3.60;2.20;;;17.30;99.90;;;;;;508342;234;29129;-82
2023/07/29 00:46:06;;;;;;;1.90;1.80;;;17.40;99.90;;;;;;508305;234;28784;-86
2023/07/29 00:48:07;;;;;;;1.90;1.80;;;17.40;99.90;;;;;;508236;234;28770;-80
2023/07/29 00:50:09;;;;;;;4.17;2.10;;;17.40;99.90;;;;;;508228;234;29179;-82
2023/07/29 00:52:12;;;;;;;1.67;1.57;;;17.40;99.90;;;;;;508227;234;29283;-78
2023/07/29 00:54:11;;;;;;;3.30;2.17;;;17.40;99.90;;;;;;508033;234;28683;-80
2023/07/29 00:56:12;;;;;;;2.00;1.90;;;17.40;99.90;;;;;;508283;234;28696;-81
2023/07/29 00:58:14;;;;;;;1.83;1.73;;;17.40;99.90;;;;;;508285;234;28794;-81
2023/07/29 01:00:15;;;;;;;2.00;1.90;;;17.40;99.90;;;;;;508058;234;28739;-81
2023/07/29 01:02:16;;;;;;;1.93;1.83;;;17.40;99.90;;;;;;508254;234;28818;-83
2023/07/29 01:04:17;;;;;;;1.73;1.63;;;17.50;99.90;;;;;;508311;234;28822;-79
2023/07/29 01:06:19;;;;;;;1.90;1.80;;;17.50;99.90;;;;;;508317;234;28806;-81
2023/07/29 01:08:20;;;;;;;5.97;2.13;;;17.50;99.90;;;;;;508163;234;28759;-81
2023/07/29 01:10:21;;;;;;;2.73;1.80;;;17.50;99.90;;;;;;508202;234;28792;-79
2023/07/29 01:12:22;;;;;;;1.90;1.80;;;17.50;99.90;;;;;;508296;234;28823;-79
2023/07/29 01:14:24;;;;;;;2.53;1.77;;;17.60;99.90;;;;;;508261;234;29389;-81
2023/07/29 01:16:25;;;;;;;1.90;1.80;;;17.60;99.90;;;;;;508340;234;29238;-79
2023/07/29 01:18:26;;;;;;;1.87;1.77;;;17.60;99.90;;;;;;508294;234;29379;-77
2023/07/29 01:20:27;;;;;;;1.80;1.70;;;17.60;99.90;;;;;;508320;234;28779;-81
2023/07/29 01:22:30;;;;;;;1.90;1.80;;;17.60;99.90;;;;;;508317;234;28682;-81
2023/07/29 01:24:30;;;;;;;2.97;1.93;;;17.60;99.90;;;;;;508136;234;28711;-82
2023/07/29 01:26:31;;;;;;;2.07;1.80;;;17.60;99.90;;;;;;508215;234;28704;-81
2023/07/29 01:28:32;;;;;;;2.30;1.87;;;17.60;99.90;;;;;;508310;234;28712;-80
2023/07/29 01:30:34;;;;;;;2.10;1.90;;;17.70;99.90;;;;;;508273;234;28696;-81
2023/07/29 01:32:35;;;;;;;2.07;1.97;;;17.70;99.90;;;;;;508220;234;28850;-82
2023/07/29 01:34:36;;;;;;;3.93;2.87;;;17.70;99.90;;;;;;497012;234;28812;-80
2023/07/29 01:36:40;;;;;;;2.00;1.90;;;17.70;99.90;;;;;;477365;247;28817;-80
2023/07/29 01:38:39;;;;;;;2.27;2.17;;;17.70;99.90;;;;;;474514;247;29490;-80
2023/07/29 01:40:40;;;;;;;1.63;1.53;;;17.70;99.90;;;;;;483165;247;29426;-81
2023/07/29 01:42:41;;;;;;;1.90;1.80;;;17.70;99.90;;;;;;474617;251;29217;-81
2023/07/29 01:44:42;;;;;;;3.20;2.23;;;17.70;99.90;;;;;;483266;244;28811;-80
2023/07/29 01:46:44;;;;;;;2.90;2.13;;;17.70;99.90;;;;;;483205;246;28829;-79
2023/07/29 01:48:45;;;;;;;2.07;1.97;;;17.80;99.90;;;;;;483265;244;28982;-81
2023/07/29 01:50:46;;;;;;;3.27;1.90;;;17.80;99.90;;;;;;483342;246;28907;-79
2023/07/29 01:52:47;;;;;;;2.93;2.17;;;17.80;99.90;;;;;;483257;247;28848;-78
2023/07/29 01:54:49;;;;;;;3.00;1.90;;;17.80;99.90;;;;;;483235;246;28970;-81
2023/07/29 01:56:51;;;;;;;2.27;1.93;;;17.80;99.90;;;;;;483218;244;28889;-79
2023/07/29 01:58:51;;;;;;;3.03;1.87;;;17.80;99.90;;;;;;483198;246;28832;-80
2023/07/29 02:00:52;;;;;;;2.00;1.90;;;17.80;99.90;;;;;;483240;244;28905;-80
2023/07/29 02:02:54;;;;;;;1.90;1.80;;;17.80;99.90;;;;;;483280;246;29309;-82
2023/07/29 02:04:55;;;;;;;1.90;1.80;;;17.80;99.90;;;;;;483194;244;29341;-79
2023/07/29 02:06:56;;;;;;;2.30;2.10;;;17.80;99.90;;;;;;483172;246;29392;-81
2023/07/29 02:08:57;;;;;;;2.10;2.00;;;17.80;99.90;;;;;;483262;244;28900;-80
2023/07/29 02:10:59;;;;;;;5.50;1.97;;;17.80;99.90;;;;;;483150;246;28916;-81
2023/07/29 02:13:00;;;;;;;2.10;1.90;;;17.70;99.90;;;;;;483287;244;28795;-83
2023/07/29 02:15:01;;;;;;;2.53;1.90;;;17.70;99.90;;;;;;483221;246;28834;-81
2023/07/29 02:17:02;;;;;;;1.90;1.80;;;17.70;99.90;;;;;;483148;244;28833;-80
2023/07/29 02:19:04;;;;;;;2.13;2.03;;;17.60;99.90;;;;;;483120;246;28860;-81
2023/07/29 02:21:05;;;;;;;2.20;2.10;;;17.60;99.90;;;;;;483007;244;28834;-81
2023/07/29 02:23:06;;;;;;;1.97;1.80;;;17.60;99.90;;;;;;483212;246;28816;-81
2023/07/29 02:25:07;;;;;;;2.33;2.00;;;17.60;99.90;;;;;;483194;244;28829;-81
2023/07/29 02:27:09;;;;;;;2.00;1.90;;;17.60;99.90;;;;;;483168;246;28900;-80
2023/07/29 02:31:16;;;;;;;5.33;2.10;;;17.60;99.90;;;;;;466850;255;28903;-81
2023/07/29 02:33:16;;;;;;;2.70;2.50;;;17.60;99.90;;;;;;466821;255;28859;-78
2023/07/29 02:35:18;;;;;;;2.37;2.10;;;17.70;99.90;;;;;;466818;255;28795;-79
2023/07/29 02:37:19;;;;;;;6.83;2.33;;;17.70;99.90;;;;;;466777;255;28831;-80
2023/07/29 02:39:20;;;;;;;3.20;1.70;;;17.70;99.90;;;;;;466743;255;28776;-80
2023/07/29 02:41:21;;;;;;;2.10;1.97;;;17.60;99.90;;;;;;466637;255;28815;-81
2023/07/29 02:45:29;;;;;;;2.20;2.03;;;17.60;99.90;;;;;;475489;251;29586;-79
2023/07/29 02:47:30;;;;;;;2.53;2.33;;;17.70;99.90;;;;;;471713;240;28896;-82
2023/07/29 02:49:31;;;;;;;2.23;2.07;;;17.70;99.90;;;;;;477457;249;29196;-79
2023/07/29 02:51:33;;;;;;;2.23;2.03;;;17.70;99.90;;;;;;471944;250;28985;-80
2023/07/29 02:53:36;;;;;;;2.07;1.97;;;17.70;99.90;;;;;;471931;252;29014;-80
2023/07/29 02:55:35;;;;;;;2.70;2.10;;;17.70;99.90;;;;;;483082;247;28909;-78
2023/07/29 02:57:37;;;;;;;2.10;1.90;;;17.60;99.90;;;;;;483325;246;28816;-78
2023/07/29 03:01:44;;;;;;;2.43;2.23;;;17.70;99.90;;;;;;485473;235;28869;-80
2023/07/29 03:03:45;;;;;;;2.23;2.13;;;17.70;99.90;;;;;;487638;235;28855;-83
2023/07/29 03:05:47;;;;;;;1.97;1.87;;;17.70;99.90;;;;;;484781;246;29475;-81
2023/07/29 03:07:48;;;;;;;2.43;2.23;;;17.70;99.90;;;;;;484827;246;29393;-79
2023/07/29 03:09:49;;;;;;;3.20;2.17;;;17.70;99.90;;;;;;484778;246;29367;-82
2023/07/29 03:11:52;;;;;;;4.40;1.90;;;17.80;99.90;;;;;;484740;246;28900;-82
2023/07/29 03:13:52;;;;;;;6.07;2.20;;;17.80;99.90;;;;;;484724;246;28736;-80
2023/07/29 03:15:53;;;;;;;2.60;2.00;;;17.80;99.90;;;;;;484843;246;28748;-80
2023/07/29 03:17:54;;;;;;;2.63;2.43;;;17.80;99.90;;;;;;484823;246;28743;-81
2023/07/29 03:19:55;;;;;;;2.10;1.90;;;17.80;99.90;;;;;;484971;246;28705;-79
2023/07/29 03:21:57;;;;;;;2.20;2.00;;;17.80;99.90;;;;;;484967;246;28723;-80
2023/07/29 03:23:58;;;;;;;2.40;2.03;;;17.80;99.90;;;;;;487018;235;28826;-79
2023/07/29 03:25:59;;;;;;;2.30;2.10;;;17.80;99.90;;;;;;485659;241;28888;-81
2023/07/29 03:28:00;;;;;;;3.47;2.30;;;17.80;99.90;;;;;;490111;236;28758;-77
2023/07/29 03:30:02;;;;;;;3.70;2.40;;;17.70;99.90;;;;;;498471;238;28674;-82
2023/07/29 03:32:03;;;;;;;3.47;2.40;;;17.70;99.90;;;;;;498183;237;29233;-80
2023/07/29 03:34:04;;;;;;;4.27;2.07;;;17.70;99.90;;;;;;498385;238;29212;-80
2023/07/29 03:38:10;;;;;;;5.43;2.23;;;17.70;99.90;;;;;;484263;236;29634;-83
2023/07/29 03:40:11;;;;;;;2.90;1.93;;;17.60;99.90;;;;;;486172;245;29304;-79
2023/07/29 03:42:12;;;;;;;5.80;2.50;;;17.60;99.90;;;;;;486140;240;28899;-83
2023/07/29 03:44:14;;;;;;;5.13;2.50;;;17.60;99.90;;;;;;486323;245;28855;-82
2023/07/29 03:46:19;;;;;;;4.40;2.13;;;17.60;99.90;;;;;;486223;245;28787;-82
2023/07/29 03:48:16;;;;;;;6.70;2.57;;;17.70;99.90;;;;;;495908;237;28752;-78
2023/07/29 03:50:17;;;;;;;2.10;2.00;;;17.70;99.90;;;;;;500780;238;28834;-80
2023/07/29 03:52:19;;;;;;;2.00;1.90;;;17.70;99.90;;;;;;500769;238;28734;-80
2023/07/29 03:54:20;;;;;;;4.67;2.03;;;17.70;99.90;;;;;;500667;238;28797;-81
2023/07/29 03:56:21;;;;;;;2.83;2.30;;;17.70;99.90;;;;;;500633;238;28771;-81
2023/07/29 03:58:22;;;;;;;2.03;1.87;;;17.70;99.90;;;;;;500720;238;28878;-82
2023/07/29 04:00:24;;;;;;;1.97;1.87;;;17.60;99.90;;;;;;491571;238;29507;-82
2023/07/29 04:04:30;;;;;;;2.43;2.23;;;17.60;99.90;;;;;;488587;232;29150;-79
2023/07/29 04:06:32;;;;;;;4.10;2.40;;;17.60;99.90;;;;;;486178;236;28863;-79
2023/07/29 04:08:33;;;;;;;2.37;2.20;;;17.60;99.90;;;;;;484303;246;28844;-78
2023/07/29 04:10:35;;;;;;;2.50;2.30;;;17.60;99.90;;;;;;484337;246;28861;-82
2023/07/29 04:12:35;;;;;;;2.30;2.13;;;17.60;99.90;;;;;;484208;240;28814;-79
2023/07/29 04:14:36;;;;;;;3.50;1.73;;;17.70;99.90;;;;;;487368;245;28866;-79
2023/07/29 04:16:38;;;;;;;2.37;1.93;;;17.70;99.90;;;;;;490119;240;28867;-78
2023/07/29 04:18:39;;;;;;;2.73;2.30;;;17.70;99.90;;;;;;492310;241;29389;-80
2023/07/29 04:20:40;;;;;;;3.27;2.57;;;17.70;99.90;;;;;;492201;241;29473;-78
2023/07/29 04:22:41;;;;;;;2.80;2.60;;;17.70;99.90;;;;;;492344;241;28761;-81
2023/07/29 04:24:43;;;;;;;2.57;2.37;;;17.80;99.90;;;;;;492268;241;28764;-80
2023/07/29 04:26:44;;;;;;;2.40;2.20;;;17.80;99.90;;;;;;492317;242;28817;-82
2023/07/29 04:30:50;;;;;;;4.63;2.50;;;17.80;99.90;;;;;;462865;258;29114;-81
2023/07/29 04:32:52;;;;;;;10.07;2.63;;;17.80;99.90;;;;;;462877;258;28930;-82
2023/07/29 04:34:53;;;;;;;4.03;2.40;;;17.80;99.90;;;;;;462774;258;28937;-83
2023/07/29 04:36:54;;;;;;;2.50;2.30;;;17.80;99.90;;;;;;462820;258;29714;-81
2023/07/29 04:38:55;;;;;;;2.47;1.97;;;17.80;99.90;;;;;;462795;258;29475;-80
2023/07/29 04:40:57;;;;;;;2.50;2.30;;;17.90;99.90;;;;;;462811;258;29423;-80
2023/07/29 04:42:58;;;;;;;3.67;2.20;;;17.90;99.90;;;;;;462818;258;28951;-80
2023/07/29 04:44:59;;;;;;;2.80;2.27;;;17.90;99.90;;;;;;462712;258;28931;-79
2023/07/29 04:47:00;;;;;;;3.60;2.70;;;17.90;99.90;;;;;;462484;258;28965;-82
2023/07/29 04:53:15;;;;;;;2.83;2.63;;;17.90;99.90;;;;;;478307;241;28835;-79
2023/07/29 04:55:16;;;;;;;4.70;2.90;;;17.90;99.90;;;;;;471054;253;28912;-80
2023/07/29 04:57:17;;;;;;;3.07;2.77;;;18.00;99.90;;;;;;471032;246;28998;-79
2023/07/29 04:59:18;;;;;;;3.50;3.20;;;17.90;99.90;;;;;;471044;253;28905;-81
2023/07/29 05:01:20;;;;;;;3.80;3.20;;;18.00;99.90;;;;;;471184;248;29017;-80
2023/07/29 05:03:21;;;;;;;3.20;2.90;;;18.00;99.90;;;;;;484188;233;28924;-80
2023/07/29 05:05:22;;;;;;;3.90;2.83;;;18.00;99.90;;;;;;485703;245;28842;-81
2023/07/29 05:07:23;;;;;;;3.37;3.13;;;18.00;99.90;;;;;;485696;245;28854;-81
2023/07/29 05:09:25;;;;;;;7.93;3.30;;;18.10;99.90;;;;;;485575;245;29507;-81
2023/07/29 05:11:26;;;;;;;4.00;3.40;;;18.00;99.90;;;;;;485743;245;29722;-81
2023/07/29 05:13:27;;;;;;;3.63;3.33;;;18.00;99.90;;;;;;485521;243;29484;-80
2023/07/29 05:15:28;;;;;;;2.70;2.50;;;18.00;99.90;;;;;;485889;245;29094;-79
2023/07/29 05:17:30;;;;;;;3.03;2.83;;;18.00;99.90;;;;;;485792;245;28791;-80
2023/07/29 05:19:31;;;;;;;3.37;3.07;;;18.10;99.90;;;;;;482741;240;28850;-81
2023/07/29 05:21:32;;;;;;;3.80;3.50;;;18.00;99.90;;;;;;486769;240;28828;-79
2023/07/29 05:23:33;;;;;;;3.70;3.50;;;18.10;99.90;;;;;;486754;240;28848;-80
2023/07/29 05:25:35;;;;;;;3.83;3.53;;;18.00;99.90;;;;;;480215;240;28859;-82
2023/07/29 05:27:36;;;;;;;4.87;3.90;;;18.10;99.90;;;;;;476560;244;28969;-81
2023/07/29 05:29:37;;;;;;;5.20;4.10;;;18.10;99.90;;;;;;476624;244;28870;-78
2023/07/29 05:31:38;;;;;;;4.40;4.00;;;18.10;99.90;;;;;;476619;244;28859;-77
2023/07/29 05:33:40;;;;;;;4.00;3.43;;;18.10;99.90;;;;;;476614;244;28870;-82
2023/07/29 05:35:41;;;;;;;3.27;3.07;;;18.10;99.90;;;;;;484676;244;29395;-80
2023/07/29 05:41:52;;;;;;;3.70;3.40;;;18.20;99.90;;;;;;486240;233;28841;-79
2023/07/29 05:43:53;;;;;;;4.37;3.80;;;18.20;99.90;;;;;;486829;236;28800;-81
2023/07/29 05:45:55;;;;;;;4.03;3.40;;;18.30;99.90;;;;;;484847;246;28917;-82
2023/07/29 05:47:56;;;;;;;4.07;3.17;;;18.20;99.90;;;;;;487182;232;28833;-80
2023/07/29 05:49:57;;;;;;;3.27;3.00;;;18.30;99.90;;;;;;492067;242;28816;-81
2023/07/29 05:51:58;;;;;;;2.80;2.60;;;18.30;99.90;;;;;;485086;241;29439;-79
2023/07/29 05:54:00;;;;;;;3.60;3.30;;;18.30;99.90;;;;;;485123;246;29480;-81
2023/07/29 05:56:01;;;;;;;2.97;2.73;;;18.30;99.90;;;;;;485018;246;28781;-79
2023/07/29 05:58:02;;;;;;;4.10;3.10;;;18.40;99.90;;;;;;485051;246;28785;-80
2023/07/29 06:00:03;;;;;;;8.13;3.23;;;18.40;99.90;;;;;;485173;246;28801;-78
2023/07/29 06:04:10;;;;;;;3.10;2.90;;;18.40;99.90;;;;;;482870;235;28817;-84
2023/07/29 06:06:12;;;;;;;3.97;3.10;;;18.40;99.90;;;;;;490897;235;28873;-79
2023/07/29 06:10:18;;;;;;;3.50;3.30;;;18.40;99.90;;;;;;478207;249;29452;-79
2023/07/29 06:14:25;;;;;;;3.10;2.80;;;18.40;99.90;;;;;;478011;249;28832;-81
2023/07/29 06:16:26;;;;;;;3.33;3.00;;;18.50;99.90;;;;;;478227;248;29248;-82
2023/07/29 06:18:27;;;;;;;3.67;2.83;;;18.50;99.90;;;;;;478273;248;28722;-80
2023/07/29 06:20:28;;;;;;;3.60;3.30;;;18.60;99.90;;;;;;478069;248;28737;-80
2023/07/29 06:22:30;;;;;;;3.03;2.80;;;18.60;99.90;;;;;;478190;248;28837;-82
2023/07/29 06:24:31;;;;;;;5.77;3.37;;;18.70;99.90;;;;;;478300;248;28721;-82
2023/07/29 06:26:32;;;;;;;2.87;2.67;;;18.80;99.90;;;;;;478218;248;29383;-80
2023/07/29 06:28:33;;;;;;;3.47;3.17;;;18.70;99.90;;;;;;478177;248;29292;-82
2023/07/29 06:30:35;;;;;;;5.33;3.27;;;18.70;99.90;;;;;;478172;248;29901;-79
2023/07/29 06:32:36;;;;;;;3.03;2.70;;;18.70;99.90;;;;;;478197;248;28782;-80
2023/07/29 06:34:37;;;;;;;3.23;2.80;;;18.70;99.90;;;;;;477902;241;28730;-81
2023/07/29 06:36:38;;;;;;;4.50;2.80;;;18.80;99.90;;;;;;482106;238;28947;-80
2023/07/29 06:38:40;;;;;;;3.30;3.00;;;18.80;99.90;;;;;;491379;238;28791;-79
2023/07/29 06:40:41;;;;;;;2.87;2.60;;;18.90;99.90;;;;;;487026;237;28930;-76
2023/07/29 06:42:42;;;;;;;2.70;2.30;;;19.00;99.90;;;;;;483041;246;28898;-81
2023/07/29 06:44:45;;;;;;;3.70;2.90;;;19.00;99.90;;;;;;487099;245;29082;-81
2023/07/29 06:46:45;;;;;;;2.90;2.40;;;18.90;99.90;;;;;;482809;246;29192;-81
2023/07/29 06:48:46;;;;;;;7.13;2.70;;;18.80;99.90;;;;;;487069;245;28681;-82
2023/07/29 06:50:47;;;;;;;2.70;2.50;;;18.90;99.90;;;;;;483146;244;29488;-81
2023/07/29 06:52:48;;;;;;;3.10;2.77;;;18.90;99.90;;;;;;487101;245;29225;-79
2023/07/29 06:54:50;;;;;;;5.07;3.20;;;18.90;99.90;;;;;;483085;244;29420;-80
2023/07/29 06:56:51;;;;;;;5.30;2.97;;;19.00;99.90;;;;;;487164;245;28754;-81
2023/07/29 07:00:58;;;;;;;3.60;2.87;;;19.10;99.90;;;;;;472665;250;29130;-81
2023/07/29 07:05:05;;;;;;;6.13;2.90;;;19.10;99.90;;;;;;476732;250;28762;-80
2023/07/29 07:07:06;;;;;;;3.30;3.00;;;19.20;99.90;;;;;;479347;248;28744;-81
2023/07/29 07:11:13;;;;;;;3.60;2.60;;;19.40;99.90;;;;;;487263;240;29471;-80
2023/07/29 07:13:15;;;;;;;5.50;2.70;;;19.40;99.90;;;;;;487506;240;29156;-81
2023/07/29 07:15:16;;;;;;;3.20;2.70;;;19.30;99.90;;;;;;489169;236;28774;-80
2023/07/29 07:19:23;;;;;;;3.23;3.03;;;19.10;99.90;;;;;;455368;244;29307;-80
2023/07/29 07:21:24;;;;;;;5.03;3.07;;;19.10;99.90;;;;;;469360;251;28831;-79
2023/07/29 07:23:25;;;;;;;2.60;2.40;;;19.10;99.90;;;;;;469363;254;28807;-80
2023/07/29 07:25:27;;;;;;;4.00;2.83;;;19.20;99.90;;;;;;469377;251;28800;-84
2023/07/29 07:27:28;;;;;;;3.33;2.60;;;19.30;99.90;;;;;;469329;251;28799;-80
2023/07/29 07:29:30;;;;;;;2.60;2.40;;;19.50;99.90;;;;;;469388;254;28892;-81
2023/07/29 07:31:30;;;;;;;2.97;2.77;;;19.80;99.90;;;;;;469213;241;29345;-80
2023/07/29 07:35:37;;;;;;;3.77;2.70;;;19.70;99.90;;;;;;487777;238;29238;-80
2023/07/29 07:37:38;;;;;;;2.70;2.50;;;19.60;99.90;;;;;;481041;240;28797;-80
2023/07/29 07:39:39;;;;;;;4.80;3.30;;;19.60;99.90;;;;;;481113;240;29110;-83
2023/07/29 07:41:41;;;;;;;3.00;2.50;;;19.60;99.90;;;;;;481277;248;28809;-80
2023/07/29 07:43:42;;;;;;;2.80;2.60;;;19.70;99.90;;;;;;481207;248;28784;-81
2023/07/29 07:45:43;;;;;;;3.03;2.80;;;19.90;99.90;;;;;;482912;235;28842;-81
2023/07/29 07:47:44;;;;;;;3.50;3.20;;;19.80;99.90;;;;;;488047;244;28868;-80
2023/07/29 07:49:46;;;;;;;2.97;2.63;;;19.60;99.90;;;;;;494423;236;29334;-82
2023/07/29 07:51:47;;;;;;;2.80;2.47;;;19.50;99.90;;;;;;505132;233;29327;-80
2023/07/29 07:53:48;;;;;;;3.30;3.00;;;19.50;99.90;;;;;;504960;236;29513;-81
2023/07/29 07:55:49;;;;;;;3.57;2.67;;;19.40;99.90;;;;;;505088;236;28798;-80
2023/07/29 07:57:51;;;;;;;3.10;2.80;;;19.40;99.90;;;;;;504901;236;28770;-82
2023/07/29 07:59:52;;;;;;;4.53;2.60;;;19.40;99.90;;;;;;505086;236;28824;-82
2023/07/29 08:01:53;;;;;;;3.23;2.93;;;19.60;99.90;;;;;;504941;236;28778;-79
2023/07/29 08:03:54;;;;;;;3.00;2.70;;;19.80;99.90;;;;;;504974;236;28830;-81
2023/07/29 08:05:56;;;;;;;3.03;2.40;;;20.10;99.90;;;;;;505028;233;28738;-81
2023/07/29 08:07:57;;;;;;;2.83;2.30;;;20.30;99.90;;;;;;505051;236;28774;-83
2023/07/29 08:09:58;;;;;;;2.97;2.63;;;20.20;99.90;;;;;;505027;236;28750;-82
2023/07/29 08:11:59;;;;;;;2.90;2.70;;;20.30;99.90;;;;;;505038;236;28778;-82
2023/07/29 08:14:01;;;;;;;6.33;2.77;;;20.50;99.90;;;;;;504984;236;28825;-82
2023/07/29 08:16:02;;;;;;;2.20;2.10;;;20.80;99.90;;;;;;504925;236;29257;-81
2023/07/29 08:18:03;;;;;;;2.50;2.27;;;20.80;99.90;;;;;;504915;236;29249;-83
2023/07/29 08:20:04;;;;;;;2.47;2.30;;;20.90;99.90;;;;;;504985;236;28755;-81
2023/07/29 08:22:06;;;;;;;3.37;2.30;;;20.90;99.90;;;;;;504939;236;28746;-81
2023/07/29 08:24:07;;;;;;;2.33;2.13;;;20.90;99.90;;;;;;504818;236;28777;-82
2023/07/29 08:26:08;;;;;;;7.40;2.70;;;20.90;99.90;;;;;;504888;236;28746;-82
2023/07/29 08:28:11;;;;;;;2.57;2.40;;;20.70;99.90;;;;;;504904;236;28774;-81
2023/07/29 08:30:11;;;;;;;2.47;2.00;;;20.60;99.90;;;;;;504887;236;28859;-82
2023/07/29 08:32:12;;;;;;;6.83;2.20;;;20.60;99.90;;;;;;504891;233;28760;-83
2023/07/29 08:34:13;;;;;;;5.07;2.10;;;20.60;99.90;;;;;;504867;236;28755;-83
2023/07/29 08:36:14;;;;;;;2.30;2.10;;;20.70;99.90;;;;;;504936;236;28787;-82
2023/07/29 08:38:16;;;;;;;2.40;2.20;;;20.70;99.90;;;;;;504834;233;28757;-83
2023/07/29 08:40:17;;;;;;;3.23;1.97;;;20.90;99.90;;;;;;504815;236;29355;-82
2023/07/29 08:42:18;;;;;;;2.07;1.93;;;21.00;99.90;;;;;;504852;236;29308;-82
2023/07/29 08:44:19;;;;;;;2.23;2.13;;;21.10;99.90;;;;;;504861;236;28847;-81
2023/07/29 08:46:21;;;;;;;2.37;2.27;;;21.20;99.90;;;;;;504766;236;28786;-83
2023/07/29 08:48:22;;;;;;;2.97;2.20;;;21.20;99.90;;;;;;504860;236;28836;-81
2023/07/29 08:50:24;;;;;;;2.70;2.00;;;21.30;99.90;;;;;;504530;236;28831;-82
2023/07/29 08:52:24;;;;;;;2.20;2.00;;;21.50;99.90;;;;;;504488;236;28765;-82
2023/07/29 08:54:26;;;;;;;2.80;2.10;;;21.50;99.90;;;;;;504560;236;28801;-81
2023/07/29 08:56:27;;;;;;;2.60;1.87;;;21.50;99.90;;;;;;504683;236;28763;-83
2023/07/29 08:58:28;;;;;;;5.10;2.03;;;21.60;99.90;;;;;;504752;236;28745;-82
2023/07/29 09:00:29;;;;;;;3.77;2.20;;;21.60;99.90;;;;;;504691;236;28805;-80
2023/07/29 09:02:31;;;;;;;1.93;1.83;;;21.70;99.90;;;;;;504690;236;28906;-82
2023/07/29 09:04:32;;;;;;;2.03;1.83;;;21.60;99.90;;;;;;504597;236;29378;-82
2023/07/29 09:06:33;;;;;;;2.60;2.23;;;21.40;99.90;;;;;;504657;236;30026;-83
2023/07/29 09:08:34;;;;;;;2.03;1.93;;;21.50;99.90;;;;;;504726;236;29205;-81
2023/07/29 09:10:36;;;;;;;2.00;1.90;;;21.80;99.90;;;;;;504536;236;28832;-82
2023/07/29 09:12:37;;;;;;;3.33;2.00;;;21.80;99.90;;;;;;504625;236;28754;-81
2023/07/29 09:14:38;;;;;;;2.50;2.03;;;21.80;99.90;;;;;;504562;236;28833;-82
2023/07/29 09:16:39;;;;;;;2.50;2.17;;;21.50;99.90;;;;;;504379;236;28901;-82
2023/07/29 09:18:41;;;;;;;2.40;2.20;;;21.50;99.90;;;;;;504418;236;28881;-82
2023/07/29 09:20:42;;;;;;;2.30;2.00;;;21.50;99.90;;;;;;504368;236;28835;-80
2023/07/29 09:22:43;;;;;;;2.17;1.97;;;21.40;99.90;;;;;;504527;236;28766;-83
2023/07/29 09:24:44;;;;;;;2.50;2.30;;;21.30;99.90;;;;;;504510;233;28769;-81
2023/07/29 09:26:46;;;;;;;4.37;2.30;;;21.30;99.90;;;;;;504550;233;28761;-80
2023/07/29 09:28:47;;;;;;;3.33;2.57;;;21.20;99.90;;;;;;504693;236;29228;-84
2023/07/29 09:30:48;;;;;;;2.43;2.23;;;21.20;99.90;;;;;;504714;233;29233;-82
2023/07/29 09:32:49;;;;;;;2.00;1.90;;;21.20;99.90;;;;;;504688;236;29259;-83
2023/07/29 09:34:51;;;;;;;2.90;1.90;;;21.10;99.90;;;;;;504646;236;28852;-83
2023/07/29 09:36:52;;;;;;;2.20;1.80;;;21.00;99.90;;;;;;500440;236;35983;-81
2023/07/29 09:38:53;;;;;;;2.20;2.10;;;20.90;99.90;;;;;;504681;236;27442;-82
2023/07/29 09:40:54;;;;;;;2.40;2.13;;;21.00;99.90;;;;;;504649;236;28744;-80
2023/07/29 09:42:56;;;;;;;2.53;2.33;;;21.10;99.90;;;;;;504523;236;28748;-82
2023/07/29 09:44:57;;;;;;;2.90;2.00;;;21.50;99.90;;;;;;504600;236;28770;-81
2023/07/29 09:46:59;;;;;;;2.40;2.20;;;21.80;99.90;;;;;;504413;236;28855;-80
2023/07/29 09:48:59;;;;;;;3.60;2.20;;;21.90;99.90;;;;;;504560;236;28841;-83
2023/07/29 09:51:01;;;;;;;6.47;2.30;;;21.70;99.90;;;;;;504464;236;28853;-82
2023/07/29 09:53:03;;;;;;;3.57;1.83;;;21.70;99.90;;;;;;504440;236;30038;-83
2023/07/29 09:55:03;;;;;;;2.97;2.30;;;21.70;99.90;;;;;;504427;236;29202;-81
2023/07/29 09:57:04;;;;;;;2.40;2.20;;;21.80;99.90;;;;;;504387;236;29240;-81
2023/07/29 09:59:06;;;;;;;1.93;1.83;;;22.10;99.90;;;;;;504325;236;28770;-81
2023/07/29 10:01:07;;;;;;;3.00;2.40;;;22.30;99.90;;;;;;504366;236;28800;-80
2023/07/29 10:03:08;;;;;;;2.40;1.87;;;22.50;99.90;;;;;;504335;233;28833;-80
2023/07/29 10:05:09;;;;;;;3.83;2.17;;;22.60;99.90;;;;;;504330;236;28801;-80
2023/07/29 10:07:11;;;;;;;1.90;1.80;;;22.50;99.90;;;;;;504334;236;29146;-79
2023/07/29 10:09:12;;;;;;;2.33;2.13;;;22.40;99.90;;;;;;504323;236;28747;-80
2023/07/29 10:11:13;;;;;;;2.27;2.13;;;22.30;99.90;;;;;;504259;236;28787;-81
2023/07/29 10:13:14;;;;;;;7.37;2.13;;;22.20;99.90;;;;;;504312;233;28804;-80
2023/07/29 10:15:16;;;;;;;3.23;1.77;;;22.10;99.90;;;;;;504266;236;28846;-81
2023/07/29 10:17:17;;;;;;;2.00;1.90;;;22.10;99.90;;;;;;504333;236;29222;-82
2023/07/29 10:19:19;;;;;;;2.87;1.80;;;22.20;99.90;;;;;;504324;233;29221;-82
2023/07/29 10:21:19;;;;;;;2.20;2.00;;;22.30;99.90;;;;;;504213;236;29245;-81
2023/07/29 10:23:21;;;;;;;2.13;1.93;;;22.30;99.90;;;;;;504268;233;28939;-81
2023/07/29 10:25:22;;;;;;;2.17;2.07;;;22.30;99.90;;;;;;504386;236;28746;-81
2023/07/29 10:27:23;;;;;;;2.10;1.90;;;22.30;99.90;;;;;;504346;236;28761;-81
2023/07/29 10:29:24;;;;;;;2.00;1.87;;;22.20;99.90;;;;;;504232;236;28840;-81
2023/07/29 10:31:26;;;;;;;2.00;1.83;;;22.20;99.90;;;;;;504132;236;28892;-80
2023/07/29 10:33:27;;;;;;;2.00;1.90;;;22.30;99.90;;;;;;504331;236;29152;-82
2023/07/29 10:35:28;;;;;;;2.67;2.03;;;22.20;99.90;;;;;;504335;236;28802;-83
2023/07/29 10:37:29;;;;;;;2.17;1.97;;;22.10;99.90;;;;;;504300;236;28777;-81
2023/07/29 10:39:31;;;;;;;1.90;1.80;;;22.10;99.90;;;;;;504318;233;28829;-81
2023/07/29 10:41:32;;;;;;;2.40;2.20;;;22.00;99.90;;;;;;504313;236;28792;-82
2023/07/29 10:43:33;;;;;;;3.00;2.20;;;21.90;99.90;;;;;;504217;236;29267;-82
2023/07/29 10:45:35;;;;;;;2.60;2.20;;;21.70;99.90;;;;;;504254;236;29214;-83
2023/07/29 10:47:36;;;;;;;2.43;2.00;;;21.60;99.90;;;;;;504299;236;29207;-81
2023/07/29 10:49:37;;;;;;;2.27;2.07;;;21.60;99.90;;;;;;504308;236;28871;-80
2023/07/29 10:51:38;;;;;;;2.57;1.90;;;21.90;99.90;;;;;;504286;233;28766;-82
2023/07/29 10:53:40;;;;;;;3.63;1.90;;;22.20;99.90;;;;;;504248;236;28814;-80
2023/07/29 10:55:42;;;;;;;2.07;1.87;;;22.40;99.90;;;;;;504396;236;28816;-83
2023/07/29 10:57:42;;;;;;;1.90;1.70;;;22.40;99.90;;;;;;504247;236;28793;-82
2023/07/29 10:59:43;;;;;;;2.63;2.00;;;22.40;99.90;;;;;;504237;236;28839;-82
2023/07/29 11:01:45;;;;;;;2.00;1.90;;;22.60;99.90;;;;;;504261;236;28773;-82
2023/07/29 11:03:46;;;;;;;15.13;2.30;;;22.90;99.90;;;;;;504304;236;28799;-82
2023/07/29 11:05:47;;;;;;;2.03;1.93;;;22.90;99.90;;;;;;504296;236;29231;-81
2023/07/29 11:07:48;;;;;;;4.03;1.80;;;22.90;99.90;;;;;;504380;236;29298;-80
2023/07/29 11:09:50;;;;;;;2.93;1.83;;;22.80;99.90;;;;;;504437;233;29945;-82